createdAt,value
2018-12-10T00:00:19.990Z,79.60
2018-12-10T00:01:20.040Z,80.43
2018-12-10T00:02:20.264Z,80.53
2018-12-10T00:03:20.497Z,80.01
2018-12-10T00:04:20.007Z,80.43
2018-12-10T00:05:20.543Z,80.32
2018-12-10T00:06:19.919Z,80.43
2018-12-10T00:07:19.943Z,80.05
2018-12-10T00:08:19.891Z,80.77
2018-12-10T00:09:20.267Z,80.98
2018-12-10T00:10:19.868Z,80.67
2018-12-10T00:11:19.857Z,80.77
2018-12-10T00:12:19.879Z,80.98
2018-12-10T00:13:19.888Z,81.09
2018-12-10T00:14:19.827Z,81.19
2018-12-10T00:15:19.816Z,80.67
2018-12-10T00:16:20.149Z,80.46
2018-12-10T00:17:19.795Z,80.67
2018-12-10T00:18:19.785Z,80.46
2018-12-10T00:19:19.816Z,80.29
2018-12-10T00:20:20.488Z,80.98
2018-12-10T00:21:19.751Z,80.88
2018-12-10T00:22:19.744Z,80.26
2018-12-10T00:23:20.192Z,80.46
2018-12-10T00:24:19.721Z,80.88
2018-12-10T00:25:19.748Z,81.02
2018-12-10T00:26:19.698Z,80.81
2018-12-10T00:27:19.690Z,81.12
2018-12-10T00:28:19.687Z,80.91
2018-12-10T00:29:19.682Z,80.91
2018-12-10T00:30:20.039Z,80.67
2018-12-10T00:31:19.729Z,80.26
2018-12-10T00:32:19.645Z,80.26
2018-12-10T00:33:19.624Z,80.36
2018-12-10T00:34:19.640Z,81.09
2018-12-10T00:35:19.603Z,80.98
2018-12-10T00:36:19.593Z,80.15
2018-12-10T00:37:21.134Z,80.15
2018-12-10T00:38:19.572Z,80.26
2018-12-10T00:39:19.567Z,80.57
2018-12-10T00:40:19.550Z,80.26
2018-12-10T00:41:19.540Z,80.84
2018-12-10T00:42:19.530Z,80.88
2018-12-10T00:43:19.558Z,81.19
2018-12-10T00:44:19.913Z,80.98
2018-12-10T00:45:19.498Z,82.64
2018-12-10T00:46:19.488Z,81.09
2018-12-10T00:47:19.478Z,81.84
2018-12-10T00:48:19.467Z,82.36
2018-12-10T00:49:19.717Z,82.15
2018-12-10T00:50:19.445Z,82.57
2018-12-10T00:51:19.751Z,82.22
2018-12-10T00:52:19.430Z,81.64
2018-12-10T00:53:19.414Z,82.26
2018-12-10T00:54:19.403Z,82.12
2018-12-10T00:55:19.432Z,82.01
2018-12-10T00:56:19.383Z,81.43
2018-12-10T00:57:19.371Z,81.91
2018-12-10T00:58:19.795Z,82.53
2018-12-10T00:59:19.352Z,82.32
2018-12-10T01:00:19.340Z,82.26
2018-12-10T01:01:19.371Z,82.43
2018-12-10T01:02:19.319Z,82.32
2018-12-10T01:03:19.326Z,83.05
2018-12-10T01:04:19.299Z,82.84
2018-12-10T01:05:19.634Z,82.22
2018-12-10T01:06:19.276Z,82.95
2018-12-10T01:07:19.354Z,82.43
2018-12-10T01:08:19.262Z,82.43
2018-12-10T01:09:19.248Z,82.98
2018-12-10T01:10:19.235Z,82.36
2018-12-10T01:11:19.229Z,82.98
2018-12-10T01:12:19.677Z,82.22
2018-12-10T01:13:19.335Z,82.36
2018-12-10T01:14:19.193Z,82.43
2018-12-10T01:15:19.182Z,82.36
2018-12-10T01:16:19.174Z,82.12
2018-12-10T01:17:19.161Z,82.43
2018-12-10T01:18:19.151Z,81.74
2018-12-10T01:19:19.558Z,81.29
2018-12-10T01:20:19.170Z,82.43
2018-12-10T01:21:19.119Z,81.33
2018-12-10T01:22:19.109Z,80.98
2018-12-10T01:23:19.101Z,81.60
2018-12-10T01:24:19.099Z,81.29
2018-12-10T01:25:19.153Z,81.60
2018-12-10T01:26:19.358Z,81.39
2018-12-10T01:27:19.059Z,82.43
2018-12-10T01:28:19.046Z,82.05
2018-12-10T01:29:19.036Z,81.70
2018-12-10T01:30:19.027Z,81.84
2018-12-10T01:31:19.059Z,81.12
2018-12-10T01:32:19.005Z,80.77
2018-12-10T01:33:19.281Z,81.09
2018-12-10T01:34:19.989Z,80.77
2018-12-10T01:35:19.478Z,80.67
2018-12-10T01:36:18.962Z,80.98
2018-12-10T01:37:18.996Z,80.98
2018-12-10T01:38:18.940Z,80.98
2018-12-10T01:39:18.931Z,80.77
2018-12-10T01:40:19.202Z,81.09
2018-12-10T01:41:18.928Z,80.77
2018-12-10T01:42:18.900Z,81.09
2018-12-10T01:43:18.972Z,80.98
2018-12-10T01:44:18.877Z,80.77
2018-12-10T01:45:18.868Z,80.88
2018-12-10T01:46:18.856Z,81.09
2018-12-10T01:47:19.285Z,80.88
2018-12-10T01:48:18.835Z,80.98
2018-12-10T01:49:18.865Z,80.57
2018-12-10T01:50:18.819Z,80.77
2018-12-10T01:51:18.804Z,80.57
2018-12-10T01:52:18.793Z,80.81
2018-12-10T01:53:18.788Z,81.19
2018-12-10T01:54:19.123Z,81.02
2018-12-10T01:55:18.800Z,81.33
2018-12-10T01:56:18.753Z,80.81
2018-12-10T01:57:18.741Z,81.19
2018-12-10T01:58:18.730Z,80.46
2018-12-10T01:59:18.722Z,80.77
2018-12-10T02:00:18.711Z,80.36
2018-12-10T02:01:18.780Z,80.15
2018-12-10T02:02:18.757Z,80.36
2018-12-10T02:03:18.727Z,79.88
2018-12-10T02:04:18.671Z,80.46
2018-12-10T02:05:18.657Z,79.43
2018-12-10T02:06:18.651Z,79.84
2018-12-10T02:07:22.312Z,79.94
2018-12-10T02:08:18.627Z,79.74
2018-12-10T02:09:18.615Z,79.94
2018-12-10T02:10:18.607Z,79.88
2018-12-10T02:11:18.594Z,79.74
2018-12-10T02:12:18.608Z,80.46
2018-12-10T02:13:18.615Z,80.36
2018-12-10T02:14:19.044Z,80.08
2018-12-10T02:15:18.552Z,80.57
2018-12-10T02:16:18.551Z,80.15
2018-12-10T02:17:18.533Z,80.67
2018-12-10T02:18:18.521Z,80.46
2018-12-10T02:19:18.571Z,80.36
2018-12-10T02:20:18.504Z,80.57
2018-12-10T02:21:18.882Z,80.46
2018-12-10T02:22:18.481Z,79.67
2018-12-10T02:23:18.473Z,79.63
2018-12-10T02:24:18.457Z,80.91
2018-12-10T02:25:18.489Z,79.63
2018-12-10T02:26:18.440Z,79.05
2018-12-10T02:27:18.438Z,79.16
2018-12-10T02:28:18.721Z,79.77
2018-12-10T02:29:18.405Z,80.19
2018-12-10T02:30:18.402Z,79.77
2018-12-10T02:31:18.433Z,80.50
2018-12-10T02:32:18.377Z,80.40
2018-12-10T02:33:18.364Z,79.98
2018-12-10T02:34:18.354Z,79.47
2018-12-10T02:35:18.777Z,79.57
2018-12-10T02:36:18.334Z,79.16
2018-12-10T02:37:18.637Z,80.40
2018-12-10T02:38:18.310Z,80.40
2018-12-10T02:39:18.301Z,80.50
2018-12-10T02:40:18.291Z,80.40
2018-12-10T02:41:18.283Z,80.08
2018-12-10T02:42:18.568Z,80.81
2018-12-10T02:43:18.306Z,80.60
2018-12-10T02:44:18.248Z,80.74
2018-12-10T02:45:18.286Z,80.95
2018-12-10T02:46:18.228Z,81.23
2018-12-10T02:47:18.217Z,81.23
2018-12-10T02:48:18.209Z,81.33
2018-12-10T02:49:18.685Z,82.15
2018-12-10T02:50:18.185Z,81.43
2018-12-10T02:51:18.176Z,82.88
2018-12-10T02:52:18.165Z,82.98
2018-12-10T02:53:18.153Z,82.71
2018-12-10T02:54:18.147Z,82.46
2018-12-10T02:55:18.220Z,83.29
2018-12-10T02:56:18.401Z,82.92
2018-12-10T02:57:18.110Z,83.02
2018-12-10T02:58:18.101Z,83.58
2018-12-10T02:59:18.090Z,83.89
2018-12-10T03:01:41.100Z,84.30
2018-12-10T03:02:40.788Z,84.51
2018-12-10T03:03:40.782Z,85.24
2018-12-10T03:04:40.766Z,85.13
2018-12-10T03:05:40.757Z,85.75
2018-12-10T03:06:40.746Z,85.38
2018-12-10T03:07:41.349Z,85.89
2018-12-10T03:08:40.724Z,85.79
2018-12-10T03:09:40.717Z,85.69
2018-12-10T03:10:40.703Z,85.79
2018-12-10T03:11:40.694Z,85.79
2018-12-10T03:12:40.683Z,85.89
2018-12-10T03:13:40.742Z,85.69
2018-12-10T03:14:40.667Z,86.52
2018-12-10T03:15:40.653Z,85.86
2018-12-10T03:16:40.647Z,86.10
2018-12-10T03:17:40.700Z,86.47
2018-12-10T03:18:40.622Z,85.34
2018-12-10T03:19:41.422Z,85.75
2018-12-10T03:20:40.601Z,85.75
2018-12-10T03:21:40.665Z,85.86
2018-12-10T03:22:40.582Z,85.75
2018-12-10T03:23:40.572Z,85.03
2018-12-10T03:24:40.559Z,85.55
2018-12-10T03:25:41.054Z,85.55
2018-12-10T03:26:40.540Z,85.75
2018-12-10T03:27:40.529Z,85.65
2018-12-10T03:28:40.520Z,85.03
2018-12-10T03:29:40.511Z,85.24
2018-12-10T03:30:40.501Z,84.92
2018-12-10T03:31:40.894Z,84.99
2018-12-10T03:32:40.479Z,85.09
2018-12-10T03:33:40.467Z,85.50
2018-12-10T03:34:40.457Z,85.24
2018-12-10T03:35:40.446Z,86.02
2018-12-10T03:36:40.436Z,85.61
2018-12-10T03:37:40.779Z,85.09
2018-12-10T03:38:40.415Z,84.78
2018-12-10T03:39:40.404Z,85.30
2018-12-10T03:40:40.395Z,84.88
2018-12-10T03:41:40.392Z,85.71
2018-12-10T03:42:40.487Z,85.09
2018-12-10T03:43:40.434Z,85.16
2018-12-10T03:44:40.356Z,85.26
2018-12-10T03:45:40.344Z,84.74
2018-12-10T03:46:40.334Z,85.16
2018-12-10T03:47:40.322Z,84.01
2018-12-10T03:48:40.315Z,85.09
2018-12-10T03:49:40.420Z,85.09
2018-12-10T03:50:40.761Z,84.95
2018-12-10T03:51:40.282Z,85.68
2018-12-10T03:52:40.270Z,85.47
2018-12-10T03:53:40.262Z,84.74
2018-12-10T03:54:40.253Z,84.99
2018-12-10T03:55:40.331Z,85.40
2018-12-10T03:56:40.232Z,85.50
2018-12-10T03:57:40.601Z,85.75
2018-12-10T03:58:40.210Z,85.71
2018-12-10T03:59:40.198Z,85.65
2018-12-10T04:00:40.193Z,85.82
2018-12-10T04:01:40.252Z,85.96
2018-12-10T04:02:40.169Z,86.58
2018-12-10T04:03:40.156Z,85.86
2018-12-10T04:04:41.569Z,86.37
2018-12-10T04:05:40.138Z,85.75
2018-12-10T04:06:40.131Z,85.86
2018-12-10T04:07:40.184Z,86.17
2018-12-10T04:08:40.107Z,85.13
2018-12-10T04:09:40.097Z,85.82
2018-12-10T04:10:40.085Z,84.88
2018-12-10T04:11:40.398Z,84.78
2018-12-10T04:12:40.171Z,85.24
2018-12-10T04:13:40.142Z,84.78
2018-12-10T04:14:40.044Z,85.55
2018-12-10T04:15:40.034Z,85.13
2018-12-10T04:16:40.028Z,84.68
2018-12-10T04:17:40.021Z,85.09
2018-12-10T04:18:40.426Z,83.54
2018-12-10T04:19:40.920Z,84.20
2018-12-10T04:20:39.982Z,84.20
2018-12-10T04:21:39.972Z,83.89
2018-12-10T04:22:39.962Z,84.58
2018-12-10T04:23:39.951Z,84.82
2018-12-10T04:24:39.947Z,84.20
2018-12-10T04:25:40.504Z,84.09
2018-12-10T04:26:40.483Z,84.20
2018-12-10T04:27:39.912Z,84.06
2018-12-10T04:28:39.899Z,85.24
2018-12-10T04:29:39.889Z,83.89
2018-12-10T04:30:39.884Z,84.41
2018-12-10T04:31:40.547Z,84.20
2018-12-10T04:32:39.860Z,84.20
2018-12-10T04:33:39.849Z,84.27
2018-12-10T04:34:39.858Z,84.09
2018-12-10T04:35:39.828Z,84.20
2018-12-10T04:36:39.817Z,83.89
2018-12-10T04:37:40.093Z,83.99
2018-12-10T04:38:39.868Z,84.27
2018-12-10T04:39:39.802Z,83.23
2018-12-10T04:40:39.780Z,83.37
2018-12-10T04:41:39.765Z,83.78
2018-12-10T04:42:39.756Z,83.78
2018-12-10T04:43:40.413Z,84.20
2018-12-10T04:44:39.741Z,83.89
2018-12-10T04:45:39.738Z,83.78
2018-12-10T04:46:39.718Z,83.78
2018-12-10T04:47:39.708Z,83.26
2018-12-10T04:48:39.702Z,83.78
2018-12-10T04:49:40.067Z,83.47
2018-12-10T04:50:40.016Z,83.78
2018-12-10T04:51:39.679Z,84.09
2018-12-10T04:52:39.660Z,83.47
2018-12-10T04:53:39.664Z,83.26
2018-12-10T04:54:39.633Z,83.16
2018-12-10T04:55:39.740Z,83.26
2018-12-10T04:56:39.616Z,83.68
2018-12-10T04:57:39.601Z,83.68
2018-12-10T04:58:39.591Z,83.78
2018-12-10T04:59:39.581Z,83.89
2018-12-10T05:00:39.571Z,83.78
2018-12-10T05:01:41.138Z,84.09
2018-12-10T05:02:39.553Z,83.58
2018-12-10T05:03:39.546Z,84.09
2018-12-10T05:04:39.532Z,83.99
2018-12-10T05:05:39.521Z,84.41
2018-12-10T05:06:39.509Z,84.20
2018-12-10T05:07:39.807Z,83.89
2018-12-10T05:08:39.944Z,84.20
2018-12-10T05:09:39.543Z,83.89
2018-12-10T05:10:39.601Z,84.09
2018-12-10T05:11:39.586Z,83.89
2018-12-10T05:12:39.529Z,83.89
2018-12-10T05:13:39.710Z,83.58
2018-12-10T05:14:39.428Z,84.27
2018-12-10T05:15:39.757Z,83.78
2018-12-10T05:16:39.405Z,83.47
2018-12-10T05:17:39.396Z,83.78
2018-12-10T05:18:39.386Z,84.51
2018-12-10T05:19:39.517Z,83.89
2018-12-10T05:20:39.365Z,83.89
2018-12-10T05:21:39.354Z,83.54
2018-12-10T05:22:39.801Z,83.78
2018-12-10T05:23:39.338Z,83.89
2018-12-10T05:24:39.325Z,83.99
2018-12-10T05:25:39.700Z,83.78
2018-12-10T05:26:39.309Z,83.78
2018-12-10T05:27:39.296Z,83.89
2018-12-10T05:28:39.294Z,84.41
2018-12-10T05:29:39.641Z,84.27
2018-12-10T05:30:39.262Z,84.30
2018-12-10T05:31:39.459Z,85.44
2018-12-10T05:32:39.249Z,84.82
2018-12-10T05:33:39.233Z,85.13
2018-12-10T05:34:39.223Z,84.92
2018-12-10T05:35:39.213Z,84.88
2018-12-10T05:36:39.682Z,84.06
2018-12-10T05:37:39.308Z,83.75
2018-12-10T05:38:39.228Z,84.20
2018-12-10T05:39:39.170Z,84.61
2018-12-10T05:40:39.158Z,84.09
2018-12-10T05:41:39.149Z,85.44
2018-12-10T05:42:39.141Z,86.07
2018-12-10T05:43:39.766Z,84.82
2018-12-10T05:44:39.118Z,85.65
2018-12-10T05:45:39.109Z,85.75
2018-12-10T05:46:39.101Z,86.37
2018-12-10T05:47:39.090Z,85.96
2018-12-10T05:48:39.079Z,87.35
2018-12-10T05:49:39.189Z,87.28
2018-12-10T05:50:39.369Z,88.53
2018-12-10T05:51:39.045Z,88.21
2018-12-10T05:52:39.037Z,88.73
2018-12-10T05:53:39.032Z,89.36
2018-12-10T05:54:39.163Z,89.04
2018-12-10T05:55:39.264Z,89.36
2018-12-10T05:56:39.053Z,89.15
2018-12-10T05:57:39.414Z,89.15
2018-12-10T05:58:38.983Z,88.69
2018-12-10T05:59:38.963Z,89.11
2018-12-10T06:00:39.014Z,88.59
2018-12-10T06:01:39.217Z,89.15
2018-12-10T06:02:38.938Z,88.59
2018-12-10T06:03:39.484Z,88.79
2018-12-10T06:04:38.915Z,88.84
2018-12-10T06:05:39.462Z,88.59
2018-12-10T06:06:38.895Z,88.90
2018-12-10T06:07:39.142Z,88.28
2018-12-10T06:08:38.880Z,87.45
2018-12-10T06:09:38.861Z,88.01
2018-12-10T06:10:39.285Z,87.38
2018-12-10T06:11:38.841Z,87.38
2018-12-10T06:12:38.829Z,87.76
2018-12-10T06:13:39.093Z,87.14
2018-12-10T06:14:38.829Z,87.35
2018-12-10T06:15:38.799Z,87.24
2018-12-10T06:16:38.787Z,87.04
2018-12-10T06:17:38.776Z,87.35
2018-12-10T06:18:38.782Z,87.24
2018-12-10T06:19:39.170Z,87.45
2018-12-10T06:20:38.745Z,87.35
2018-12-10T06:21:38.737Z,87.55
2018-12-10T06:22:39.149Z,86.93
2018-12-10T06:23:38.716Z,87.14
2018-12-10T06:24:38.717Z,87.14
2018-12-10T06:25:38.829Z,87.04
2018-12-10T06:26:38.686Z,86.83
2018-12-10T06:27:38.674Z,86.00
2018-12-10T06:28:38.662Z,85.79
2018-12-10T06:29:38.679Z,86.15
2018-12-10T06:30:38.654Z,85.69
2018-12-10T06:31:38.698Z,86.21
2018-12-10T06:32:38.625Z,86.00
2018-12-10T06:33:38.612Z,86.87
2018-12-10T06:34:39.023Z,85.89
2018-12-10T06:35:38.599Z,86.31
2018-12-10T06:36:38.581Z,85.58
2018-12-10T06:37:39.454Z,86.10
2018-12-10T06:38:38.561Z,86.25
2018-12-10T06:39:38.553Z,85.38
2018-12-10T06:40:38.541Z,86.21
2018-12-10T06:41:38.962Z,85.58
2018-12-10T06:42:38.521Z,85.79
2018-12-10T06:43:38.550Z,84.96
2018-12-10T06:44:38.497Z,85.27
2018-12-10T06:45:38.494Z,85.69
2018-12-10T06:46:38.476Z,85.27
2018-12-10T06:47:38.494Z,85.69
2018-12-10T06:48:38.758Z,85.69
2018-12-10T06:49:38.509Z,85.83
2018-12-10T06:50:38.436Z,85.83
2018-12-10T06:51:38.432Z,85.83
2018-12-10T06:52:38.424Z,85.83
2018-12-10T06:53:38.411Z,86.08
2018-12-10T06:54:38.397Z,86.08
2018-12-10T06:55:38.556Z,86.15
2018-12-10T06:56:38.385Z,86.25
2018-12-10T06:57:38.394Z,86.29
2018-12-10T06:58:38.364Z,86.08
2018-12-10T06:59:38.963Z,86.15
2018-12-10T07:00:38.336Z,85.77
2018-12-10T07:01:38.365Z,85.87
2018-12-10T07:02:38.349Z,85.97
2018-12-10T07:03:38.305Z,86.18
2018-12-10T07:04:38.291Z,86.18
2018-12-10T07:05:38.281Z,86.08
2018-12-10T07:06:38.269Z,84.94
2018-12-10T07:07:38.296Z,85.66
2018-12-10T07:08:38.250Z,85.77
2018-12-10T07:09:38.238Z,85.97
2018-12-10T07:10:38.234Z,86.29
2018-12-10T07:11:38.229Z,85.87
2018-12-10T07:12:38.221Z,85.97
2018-12-10T07:13:38.686Z,85.77
2018-12-10T07:14:38.185Z,85.97
2018-12-10T07:15:38.181Z,85.97
2018-12-10T07:16:38.168Z,85.87
2018-12-10T07:17:38.163Z,85.46
2018-12-10T07:18:38.170Z,85.77
2018-12-10T07:19:38.522Z,85.35
2018-12-10T07:20:38.126Z,85.56
2018-12-10T07:21:38.112Z,85.46
2018-12-10T07:22:38.127Z,85.25
2018-12-10T07:23:38.094Z,85.35
2018-12-10T07:24:38.150Z,85.31
2018-12-10T07:25:38.137Z,85.42
2018-12-10T07:26:38.088Z,85.31
2018-12-10T07:27:38.055Z,85.21
2018-12-10T07:28:38.104Z,84.83
2018-12-10T07:29:38.047Z,84.94
2018-12-10T07:30:41.545Z,85.14
2018-12-10T07:31:38.110Z,85.42
2018-12-10T07:32:38.010Z,84.73
2018-12-10T07:33:37.995Z,84.42
2018-12-10T07:34:37.973Z,85.11
2018-12-10T07:35:37.964Z,83.97
2018-12-10T07:36:37.959Z,85.46
2018-12-10T07:37:37.986Z,83.86
2018-12-10T07:38:37.930Z,84.73
2018-12-10T07:39:38.442Z,84.80
2018-12-10T07:40:37.910Z,85.25
2018-12-10T07:41:37.906Z,85.11
2018-12-10T07:42:37.901Z,84.38
2018-12-10T07:43:37.940Z,84.38
2018-12-10T07:44:37.873Z,84.38
2018-12-10T07:45:37.861Z,85.21
2018-12-10T07:46:37.851Z,84.90
2018-12-10T07:47:37.905Z,84.90
2018-12-10T07:48:37.838Z,85.42
2018-12-10T07:49:38.302Z,84.59
2018-12-10T07:50:37.809Z,84.07
2018-12-10T07:51:37.796Z,84.90
2018-12-10T07:52:37.789Z,83.97
2018-12-10T07:53:37.780Z,84.90
2018-12-10T07:54:37.766Z,84.17
2018-12-10T07:55:37.793Z,85.11
2018-12-10T07:56:37.754Z,84.17
2018-12-10T07:57:37.735Z,84.86
2018-12-10T07:58:37.727Z,85.21
2018-12-10T07:59:37.715Z,84.80
2018-12-10T08:00:37.706Z,85.27
2018-12-10T08:01:37.755Z,84.17
2018-12-10T08:02:37.689Z,84.03
2018-12-10T08:03:37.673Z,84.38
2018-12-10T08:04:37.663Z,84.38
2018-12-10T08:05:37.652Z,83.83
2018-12-10T08:06:37.644Z,83.93
2018-12-10T08:07:37.792Z,83.20
2018-12-10T08:08:37.623Z,82.48
2018-12-10T08:09:37.611Z,83.00
2018-12-10T08:10:37.600Z,82.65
2018-12-10T08:11:37.589Z,82.44
2018-12-10T08:12:37.579Z,82.54
2018-12-10T08:13:37.610Z,81.61
2018-12-10T08:14:37.562Z,82.23
2018-12-10T08:15:37.548Z,81.92
2018-12-10T08:16:37.541Z,81.23
2018-12-10T08:17:37.532Z,81.23
2018-12-10T08:18:37.525Z,81.20
2018-12-10T08:19:37.866Z,81.30
2018-12-10T08:20:37.497Z,80.88
2018-12-10T08:21:37.529Z,81.09
2018-12-10T08:22:37.482Z,80.47
2018-12-10T08:23:37.493Z,80.78
2018-12-10T08:24:37.462Z,80.57
2018-12-10T08:25:37.663Z,80.57
2018-12-10T08:26:37.501Z,80.16
2018-12-10T08:27:37.429Z,80.26
2018-12-10T08:28:37.419Z,80.88
2018-12-10T08:29:37.405Z,81.09
2018-12-10T08:30:37.399Z,80.88
2018-12-10T08:31:37.424Z,80.78
2018-12-10T08:32:37.409Z,79.44
2018-12-10T08:33:37.390Z,80.16
2018-12-10T08:34:41.408Z,79.50
2018-12-10T08:35:40.893Z,79.60
2018-12-10T08:36:37.332Z,79.30
2018-12-10T08:37:37.778Z,79.71
2018-12-10T08:38:37.316Z,79.54
2018-12-10T08:39:37.312Z,79.74
2018-12-10T08:40:37.306Z,79.95
2018-12-10T08:41:37.375Z,80.54
2018-12-10T08:42:37.278Z,80.22
2018-12-10T08:43:37.329Z,79.09
2018-12-10T08:44:37.249Z,79.60
2018-12-10T08:45:37.239Z,78.78
2018-12-10T08:46:37.231Z,78.88
2018-12-10T08:47:37.219Z,78.47
2018-12-10T08:48:37.212Z,78.57
2018-12-10T08:49:37.241Z,78.22
2018-12-10T08:50:37.187Z,78.99
2018-12-10T08:51:37.179Z,79.36
2018-12-10T08:52:37.191Z,78.64
2018-12-10T08:53:37.161Z,79.26
2018-12-10T08:54:37.188Z,79.40
2018-12-10T08:55:37.286Z,79.30
2018-12-10T08:56:37.130Z,78.67
2018-12-10T08:57:37.122Z,78.16
2018-12-10T08:58:37.217Z,78.47
2018-12-10T08:59:37.097Z,79.30
2018-12-10T09:00:37.092Z,78.47
2018-12-10T09:01:37.229Z,78.16
2018-12-10T09:02:43.927Z,78.26
2018-12-10T09:03:38.020Z,78.02
2018-12-10T09:04:37.095Z,78.88
2018-12-10T09:05:37.069Z,78.88
2018-12-10T09:06:37.935Z,78.47
2018-12-10T09:07:37.123Z,78.05
2018-12-10T09:08:37.034Z,79.19
2018-12-10T09:09:37.017Z,78.78
2018-12-10T09:10:37.043Z,78.88
2018-12-10T09:11:36.975Z,78.78
2018-12-10T09:12:36.959Z,79.40
2018-12-10T09:13:38.310Z,79.19
2018-12-10T09:14:36.941Z,79.44
2018-12-10T09:15:36.937Z,79.71
2018-12-10T09:16:36.924Z,79.71
2018-12-10T09:17:36.915Z,79.71
2018-12-10T09:18:36.899Z,79.30
2018-12-10T09:19:37.181Z,78.67
2018-12-10T09:20:36.879Z,79.16
2018-12-10T09:21:36.873Z,79.40
2018-12-10T09:22:36.858Z,79.91
2018-12-10T09:23:37.393Z,79.81
2018-12-10T09:24:36.835Z,79.50
2018-12-10T09:25:37.173Z,79.71
2018-12-10T09:26:36.819Z,79.71
2018-12-10T09:27:36.804Z,79.05
2018-12-10T09:28:36.799Z,79.47
2018-12-10T09:29:36.888Z,78.95
2018-12-10T09:30:36.812Z,78.81
2018-12-10T09:31:37.384Z,78.22
2018-12-10T09:32:36.773Z,78.02
2018-12-10T09:33:36.747Z,78.22
2018-12-10T09:34:36.750Z,78.74
2018-12-10T09:35:36.734Z,78.02
2018-12-10T09:36:36.735Z,78.29
2018-12-10T09:37:37.232Z,78.02
2018-12-10T09:38:36.696Z,79.36
2018-12-10T09:39:36.681Z,79.36
2018-12-10T09:40:36.674Z,78.99
2018-12-10T09:41:36.666Z,79.26
2018-12-10T09:42:36.694Z,78.64
2018-12-10T09:43:36.675Z,78.43
2018-12-10T09:44:36.639Z,78.53
2018-12-10T09:45:36.656Z,78.64
2018-12-10T09:46:36.613Z,78.22
2018-12-10T09:47:36.615Z,77.91
2018-12-10T09:48:36.619Z,78.43
2018-12-10T09:49:36.652Z,78.64
2018-12-10T09:50:36.568Z,78.64
2018-12-10T09:51:36.554Z,77.91
2018-12-10T09:52:36.544Z,77.91
2018-12-10T09:53:36.533Z,78.43
2018-12-10T09:54:36.523Z,78.95
2018-12-10T09:55:36.594Z,78.95
2018-12-10T09:56:36.503Z,78.02
2018-12-10T09:57:36.500Z,78.12
2018-12-10T09:58:36.484Z,77.91
2018-12-10T09:59:36.474Z,78.02
2018-12-10T10:00:36.479Z,78.85
2018-12-10T10:01:36.526Z,78.95
2018-12-10T10:02:36.457Z,78.43
2018-12-10T10:03:36.463Z,78.02
2018-12-10T10:04:36.430Z,78.53
2018-12-10T10:05:36.427Z,78.95
2018-12-10T10:06:36.402Z,78.95
2018-12-10T10:07:36.432Z,78.64
2018-12-10T10:08:36.379Z,78.22
2018-12-10T10:09:36.373Z,78.12
2018-12-10T10:10:36.359Z,78.22
2018-12-10T10:11:36.347Z,78.43
2018-12-10T10:12:36.347Z,78.85
2018-12-10T10:13:36.750Z,78.64
2018-12-10T10:14:36.359Z,78.64
2018-12-10T10:15:36.333Z,78.70
2018-12-10T10:16:36.301Z,79.57
2018-12-10T10:17:36.289Z,79.53
2018-12-10T10:18:36.291Z,80.57
2018-12-10T10:19:36.310Z,79.67
2018-12-10T10:20:36.254Z,80.08
2018-12-10T10:21:36.254Z,80.08
2018-12-10T10:22:36.305Z,81.02
2018-12-10T10:23:36.230Z,81.02
2018-12-10T10:24:36.269Z,81.12
2018-12-10T10:25:36.326Z,81.12
2018-12-10T10:26:36.265Z,81.23
2018-12-10T10:27:36.202Z,80.71
2018-12-10T10:28:36.180Z,80.05
2018-12-10T10:29:36.184Z,79.39
2018-12-10T10:30:36.195Z,79.60
2018-12-10T10:31:36.254Z,79.60
2018-12-10T10:32:36.144Z,79.53
2018-12-10T10:33:36.180Z,80.36
2018-12-10T10:34:36.111Z,80.36
2018-12-10T10:35:36.128Z,79.22
2018-12-10T10:36:37.374Z,79.53
2018-12-10T10:37:36.115Z,79.22
2018-12-10T10:38:36.111Z,79.16
2018-12-10T10:39:36.910Z,79.94
2018-12-10T10:40:36.102Z,80.46
2018-12-10T10:41:36.055Z,80.26
2018-12-10T10:42:36.030Z,79.94
2018-12-10T10:43:37.914Z,79.84
2018-12-10T10:44:36.006Z,80.36
2018-12-10T10:45:36.016Z,79.39
2018-12-10T10:46:35.986Z,79.53
2018-12-10T10:47:35.990Z,80.29
2018-12-10T10:48:36.037Z,80.46
2018-12-10T10:49:36.178Z,80.67
2018-12-10T10:50:35.943Z,81.19
2018-12-10T10:51:35.935Z,81.29
2018-12-10T10:52:35.923Z,82.01
2018-12-10T10:53:35.910Z,81.05
2018-12-10T10:54:35.899Z,80.94
2018-12-10T10:55:36.092Z,80.43
2018-12-10T10:56:35.905Z,80.63
2018-12-10T10:57:35.918Z,80.94
2018-12-10T10:58:37.370Z,81.19
2018-12-10T10:59:35.941Z,81.84
2018-12-10T11:00:35.857Z,82.53
2018-12-10T11:01:36.175Z,82.53
2018-12-10T11:02:35.827Z,81.15
2018-12-10T11:03:35.807Z,80.77
2018-12-10T11:04:37.506Z,80.74
2018-12-10T11:05:35.785Z,81.15
2018-12-10T11:06:35.779Z,80.94
2018-12-10T11:07:35.915Z,80.22
2018-12-10T11:08:35.773Z,79.56
2018-12-10T11:09:35.770Z,79.05
2018-12-10T11:10:35.794Z,78.63
2018-12-10T11:11:35.742Z,78.84
2018-12-10T11:12:35.736Z,79.25
2018-12-10T11:13:36.346Z,79.56
2018-12-10T11:14:35.693Z,80.32
2018-12-10T11:15:35.681Z,79.15
2018-12-10T11:16:35.736Z,78.22
2018-12-10T11:17:35.669Z,78.42
2018-12-10T11:18:35.670Z,78.22
2018-12-10T11:19:35.706Z,78.08
2018-12-10T11:20:35.641Z,77.77
2018-12-10T11:21:35.617Z,77.25
2018-12-10T11:22:35.617Z,77.87
2018-12-10T11:23:35.601Z,78.45
2018-12-10T11:24:35.739Z,76.81
2018-12-10T11:25:35.675Z,77.15
2018-12-10T11:26:35.640Z,77.25
2018-12-10T11:27:35.554Z,76.77
2018-12-10T11:28:35.548Z,76.15
2018-12-10T11:29:35.543Z,75.43
2018-12-10T11:30:35.550Z,74.60
2018-12-10T11:31:35.649Z,74.67
2018-12-10T11:32:35.502Z,74.57
2018-12-10T11:33:35.535Z,74.67
2018-12-10T11:34:35.481Z,74.98
2018-12-10T11:35:35.536Z,73.68
2018-12-10T11:36:35.536Z,71.00
2018-12-10T11:37:35.907Z,65.39
2018-12-10T11:38:35.536Z,66.41
2018-12-10T11:39:35.469Z,66.25
2018-12-10T11:40:35.434Z,66.10
2018-12-10T11:41:35.412Z,63.59
2018-12-10T11:42:35.398Z,63.28
2018-12-10T11:43:35.714Z,60.17
2018-12-10T11:44:35.382Z,62.08
2018-12-10T11:45:35.370Z,60.57
2018-12-10T11:46:35.378Z,65.44
2018-12-10T11:47:35.346Z,62.36
2018-12-10T11:48:35.706Z,61.30
2018-12-10T11:49:35.453Z,58.86
2018-12-10T11:50:35.340Z,60.23
2018-12-10T11:51:35.367Z,64.40
2018-12-10T11:52:35.293Z,58.84
2018-12-10T11:53:35.289Z,57.64
2018-12-10T11:54:35.326Z,63.12
2018-12-10T11:55:35.387Z,64.90
2018-12-10T11:56:35.755Z,65.86
2018-12-10T11:57:35.252Z,65.86
2018-12-10T11:58:35.287Z,68.11
2018-12-10T11:59:35.234Z,69.69
2018-12-10T12:00:35.219Z,70.86
2018-12-10T12:01:35.558Z,71.47
2018-12-10T12:02:35.258Z,71.81
2018-12-10T12:03:35.250Z,72.06
2018-12-10T12:04:35.168Z,72.36
2018-12-10T12:05:35.154Z,72.26
2018-12-10T12:06:35.153Z,73.12
2018-12-10T12:07:35.287Z,73.22
2018-12-10T12:08:35.124Z,73.95
2018-12-10T12:09:35.638Z,74.12
2018-12-10T12:10:35.135Z,73.81
2018-12-10T12:11:35.983Z,73.39
2018-12-10T12:12:37.973Z,73.81
2018-12-10T12:13:35.281Z,73.39
2018-12-10T12:14:35.088Z,74.02
2018-12-10T12:15:35.256Z,73.39
2018-12-10T12:16:35.054Z,73.39
2018-12-10T12:17:35.088Z,72.95
2018-12-10T12:18:35.059Z,72.74
2018-12-10T12:19:35.217Z,73.16
2018-12-10T12:20:35.045Z,72.99
2018-12-10T12:21:37.916Z,73.39
2018-12-10T12:22:35.020Z,73.39
2018-12-10T12:23:34.998Z,73.95
2018-12-10T12:24:34.965Z,74.67
2018-12-10T12:25:36.020Z,74.57
2018-12-10T12:26:34.934Z,76.32
2018-12-10T12:27:34.929Z,76.64
2018-12-10T12:28:35.913Z,77.56
2018-12-10T12:29:34.993Z,77.87
2018-12-10T12:30:34.893Z,78.32
2018-12-10T12:31:35.898Z,78.32
2018-12-10T12:32:34.872Z,79.46
2018-12-10T12:33:34.904Z,79.19
2018-12-10T12:34:34.920Z,80.43
2018-12-10T12:35:36.362Z,80.84
2018-12-10T12:36:35.362Z,82.32
2018-12-10T12:37:35.881Z,83.29
2018-12-10T12:38:34.814Z,83.67
2018-12-10T12:39:35.273Z,84.64
2018-12-10T12:40:34.788Z,84.74
2018-12-10T12:41:34.778Z,85.61
2018-12-10T12:42:34.767Z,85.65
2018-12-10T12:43:34.828Z,87.24
2018-12-10T12:44:34.744Z,87.80
2018-12-10T12:45:34.791Z,88.57
2018-12-10T12:46:34.729Z,89.92
2018-12-10T12:47:34.715Z,90.23
2018-12-10T12:48:34.712Z,90.12
2018-12-10T12:49:34.771Z,91.16
2018-12-10T12:50:34.688Z,90.60
2018-12-10T12:51:34.676Z,89.92
2018-12-10T12:52:35.856Z,89.92
2018-12-10T12:53:35.394Z,89.71